Time;durP1;ratioP1;P1;durP2;ratioP2;P2;SDS_P1;SDS_P2;PMS_P1;PMS_P2;Temp;Humidity;BMP_temperature;BMP_pressure;BME280_temperature;BME280_humidity;BME280_pressure;Samples;Min_cycle;Max_cycle;Signal;HPM_P1;HPM_P2
2022/06/11 00:01:20;;;;;;;;;;;;;;;18.47;92.09;94614.13;5093211;28;1044;-50
2022/06/11 00:03:48;;;;;;;;;;;;;;;18.41;92.60;94615.03;5093208;28;1204;-49
2022/06/11 00:06:14;;;;;;;;;;;;;;;18.46;91.82;94616.03;5093955;28;1169;-50
2022/06/11 00:08:40;;;;;;;;;;;;;;;18.52;91.02;94612.41;5093369;28;1905;-50
2022/06/11 00:11:06;;;;;;;;;;;;;;;18.61;90.54;94615.69;5089709;28;1185;-50
2022/06/11 00:13:33;;;;;;;;;;;;;;;18.58;90.92;94618.00;5073270;28;970;-50
2022/06/11 00:16:01;;;;;;;;;;;;;;;18.58;90.65;94620.72;5072918;28;1309;-50
2022/06/11 00:18:28;;;;;;;;;;;;;;;18.59;90.80;94612.38;5086890;28;1178;-50
2022/06/11 00:20:54;;;;;;;;;;;;;;;18.45;93.08;94606.25;5093197;28;1047;-50
2022/06/11 00:23:20;;;;;;;;;;;;;;;18.43;92.37;94611.06;5093217;28;1016;-49
2022/06/11 00:25:46;;;;;;;;;;;;;;;18.52;91.11;94609.72;5092628;28;1091;-50
2022/06/11 00:28:12;;;;;;;;;;;;;;;18.61;90.75;94599.44;5096924;28;1991;-50
2022/06/11 00:30:39;;;;;;;;;;;;;;;18.62;91.12;94597.53;5097139;28;966;-50
2022/06/11 00:33:07;;;;;;;;;;;;;;;18.50;91.35;94606.41;5096085;28;1028;-50
2022/06/11 00:35:35;;;;;;;;;;;;;;;18.54;91.06;94604.91;5096939;28;1021;-50
2022/06/11 00:38:02;;;;;;;;;;;;;;;18.55;91.10;94597.59;5096866;28;951;-50
2022/06/11 00:40:30;;;;;;;;;;;;;;;18.64;90.15;94595.44;5096725;28;1099;-50
2022/06/11 00:42:56;;;;;;;;;;;;;;;18.59;91.16;94592.56;5096951;28;1017;-49
2022/06/11 00:45:23;;;;;;;;;;;;;;;18.67;90.28;94595.81;5096826;28;1035;-50
2022/06/11 00:47:57;;;;;;;;;;;;;;;18.58;91.44;94596.34;5096619;28;1998;-50
2022/06/11 00:50:26;;;;;;;;;;;;;;;18.58;91.12;94585.50;5096715;28;965;-50
2022/06/11 00:52:55;;;;;;;;;;;;;;;18.54;90.93;94591.38;5096676;28;1024;-50
2022/06/11 00:55:31;;;;;;;;;;;;;;;18.55;90.57;94594.91;5096609;28;992;-50
2022/06/11 00:57:57;;;;;;;;;;;;;;;18.60;90.71;94595.06;5096436;28;1088;-50
2022/06/11 01:00:34;;;;;;;;;;;;;;;18.53;90.92;94589.72;5096511;28;1007;-49
2022/06/11 01:03:01;;;;;;;;;;;;;;;18.52;90.74;94590.75;5096400;28;1104;-50
2022/06/11 01:05:29;;;;;;;;;;;;;;;18.50;90.45;94595.59;5096209;28;1078;-50
2022/06/11 01:07:56;;;;;;;;;;;;;;;18.61;89.66;94593.16;5096383;28;1989;-50
2022/06/11 01:10:41;;;;;;;;;;;;;;;18.65;88.79;94595.22;5096395;28;1036;-50
2022/06/11 01:13:30;;;;;;;;;;;;;;;18.57;91.13;94589.25;5096424;28;999;-50
2022/06/11 01:15:59;;;;;;;;;;;;;;;18.58;90.91;94588.22;5096149;28;1083;-50
2022/06/11 01:18:36;;;;;;;;;;;;;;;18.68;89.54;94588.50;5095380;28;1090;-50
2022/06/11 01:21:13;;;;;;;;;;;;;;;18.77;88.66;94591.75;5096231;28;1023;-50
2022/06/11 01:24:03;;;;;;;;;;;;;;;18.68;89.50;94593.94;5095976;28;976;-50
2022/06/11 01:26:47;;;;;;;;;;;;;;;18.69;89.24;94598.31;5087866;28;1134;-50
2022/06/11 01:29:19;;;;;;;;;;;;;;;18.71;88.97;94604.31;5095759;28;1910;-50
2022/06/11 01:31:48;;;;;;;;;;;;;;;18.68;88.95;94605.59;5095892;28;991;-50
2022/06/11 01:34:26;;;;;;;;;;;;;;;18.59;90.07;94601.53;5095574;28;1036;-52
2022/06/11 01:36:55;;;;;;;;;;;;;;;18.65;89.37;94599.81;5094555;28;1048;-49
2022/06/11 01:39:21;;;;;;;;;;;;;;;18.63;90.01;94601.88;5095029;28;954;-50
2022/06/11 01:41:47;;;;;;;;;;;;;;;18.54;89.65;94604.09;5095904;28;1009;-50
2022/06/11 01:44:15;;;;;;;;;;;;;;;18.52;90.33;94609.72;5095921;28;970;-50
2022/06/11 01:46:46;;;;;;;;;;;;;;;18.54;90.23;94607.59;5095554;28;1047;-50
2022/06/11 01:49:20;;;;;;;;;;;;;;;18.53;91.36;94605.97;5095408;28;1980;-50
2022/06/11 01:52:06;;;;;;;;;;;;;;;18.59;90.02;94606.94;5095609;28;965;-50
2022/06/11 01:54:35;;;;;;;;;;;;;;;18.70;87.89;94605.38;5094172;28;1024;-50
2022/06/11 01:57:01;;;;;;;;;;;;;;;18.76;87.57;94604.44;5095448;28;966;-50
2022/06/11 01:59:33;;;;;;;;;;;;;;;18.79;86.78;94606.72;5095192;28;1142;-50
2022/06/11 02:02:02;;;;;;;;;;;;;;;18.67;87.71;94603.13;5095238;28;1029;-50
2022/06/11 02:04:28;;;;;;;;;;;;;;;18.54;89.30;94604.91;5095174;28;1207;-50
2022/06/11 02:07:04;;;;;;;;;;;;;;;18.43;89.83;94611.06;5110389;28;1906;-50
2022/06/11 02:09:30;;;;;;;;;;;;;;;18.57;88.72;94608.22;5108914;28;1416;-50
2022/06/11 02:12:00;;;;;;;;;;;;;;;18.65;87.44;94599.81;5095145;28;961;-50
2022/06/11 02:14:32;;;;;;;;;;;;;;;18.68;87.36;94599.34;5095308;28;992;-50
2022/06/11 02:17:01;;;;;;;;;;;;;;;18.70;87.22;94600.78;5095056;28;1169;-50
2022/06/11 02:19:33;;;;;;;;;;;;;;;18.59;88.25;94600.69;5094769;28;1228;-50
2022/06/11 02:22:01;;;;;;;;;;;;;;;18.61;88.29;94598.59;5095065;28;1039;-50
2022/06/11 02:24:33;;;;;;;;;;;;;;;18.68;87.28;94602.06;5094724;28;1076;-50
2022/06/11 02:27:01;;;;;;;;;;;;;;;18.72;87.33;94605.97;5094658;28;1909;-50
2022/06/11 02:29:30;;;;;;;;;;;;;;;18.76;86.56;94601.75;5094728;28;1024;-50
2022/06/11 02:31:58;;;;;;;;;;;;;;;18.78;86.25;94605.09;5094820;28;961;-50
2022/06/11 02:34:26;;;;;;;;;;;;;;;18.68;86.93;94608.28;5094710;28;1032;-50
2022/06/11 02:36:52;;;;;;;;;;;;;;;18.62;87.19;94601.06;5094699;28;984;-50
2022/06/11 02:39:18;;;;;;;;;;;;;;;18.64;87.14;94600.84;5094412;28;1130;-50
2022/06/11 02:41:46;;;;;;;;;;;;;;;18.63;87.39;94607.31;5094705;28;1193;-50
2022/06/11 02:44:12;;;;;;;;;;;;;;;18.61;87.57;94607.56;5094853;28;1047;-50
2022/06/11 02:46:41;;;;;;;;;;;;;;;18.59;88.21;94606.09;5094571;28;981;-50
2022/06/11 02:49:09;;;;;;;;;;;;;;;18.54;88.58;94613.03;5094421;28;1898;-50
2022/06/11 02:51:35;;;;;;;;;;;;;;;18.49;89.89;94606.63;5094513;28;1058;-50
2022/06/11 02:54:02;;;;;;;;;;;;;;;18.52;88.98;94612.41;5092960;28;1048;-49
2022/06/11 02:56:28;;;;;;;;;;;;;;;18.49;89.77;94615.56;5094553;28;976;-50
2022/06/11 02:58:55;;;;;;;;;;;;;;;18.51;89.30;94623.47;5094132;28;1119;-50
2022/06/11 03:01:21;;;;;;;;;;;;;;;18.48;89.06;94619.34;5093267;28;989;-50
2022/06/11 03:03:49;;;;;;;;;;;;;;;18.47;89.11;94625.78;5093977;28;1350;-50
2022/06/11 03:06:16;;;;;;;;;;;;;;;18.55;88.10;94627.38;5103628;28;1176;-50
2022/06/11 03:08:42;;;;;;;;;;;;;;;18.61;87.55;94620.25;5114120;28;1989;-50
2022/06/11 03:11:08;;;;;;;;;;;;;;;18.64;87.43;94617.09;5095965;28;1086;-50
2022/06/11 03:13:34;;;;;;;;;;;;;;;18.72;86.42;94627.63;5092567;28;1075;-50
2022/06/11 03:16:01;;;;;;;;;;;;;;;18.74;86.45;94622.81;5094163;28;992;-50
2022/06/11 03:18:27;;;;;;;;;;;;;;;18.68;86.86;94627.25;5093877;28;1032;-50
2022/06/11 03:20:54;;;;;;;;;;;;;;;18.68;86.63;94623.72;5092716;28;1594;-50
2022/06/11 03:23:20;;;;;;;;;;;;;;;18.56;88.68;94628.22;5093695;28;1102;-50
2022/06/11 03:25:46;;;;;;;;;;;;;;;18.51;89.01;94632.41;5092399;28;1107;-50
2022/06/11 03:28:14;;;;;;;;;;;;;;;18.63;87.17;94629.81;5093799;28;1997;-50
2022/06/11 03:30:40;;;;;;;;;;;;;;;18.75;86.90;94632.59;5093581;28;1024;-50
2022/06/11 03:33:07;;;;;;;;;;;;;;;18.75;86.40;94635.31;5093776;28;1027;-50
2022/06/11 03:35:33;;;;;;;;;;;;;;;18.61;88.40;94633.78;5092526;28;1033;-50
2022/06/11 03:38:00;;;;;;;;;;;;;;;18.58;88.75;94634.25;5093444;28;1019;-50
2022/06/11 03:40:26;;;;;;;;;;;;;;;18.63;88.96;94637.09;5093559;28;1211;-50
2022/06/11 03:42:52;;;;;;;;;;;;;;;18.65;88.16;94632.31;5093875;28;966;-50
2022/06/11 03:45:18;;;;;;;;;;;;;;;18.68;87.35;94635.38;5093732;28;1019;-50
2022/06/11 03:47:45;;;;;;;;;;;;;;;18.74;87.13;94636.34;5092157;28;1996;-50
2022/06/11 03:50:16;;;;;;;;;;;;;;;18.63;88.72;94637.09;5093377;28;985;-49
2022/06/11 03:52:42;;;;;;;;;;;;;;;18.58;89.34;94647.78;5093278;28;1088;-50
2022/06/11 03:55:08;;;;;;;;;;;;;;;18.64;87.88;94639.56;5093693;28;1012;-50
2022/06/11 03:57:34;;;;;;;;;;;;;;;18.66;88.45;94650.19;5093574;28;1119;-50
2022/06/11 04:00:02;;;;;;;;;;;;;;;18.54;89.17;94653.63;5093131;28;1395;-50
2022/06/11 04:02:28;;;;;;;;;;;;;;;18.52;90.59;94655.72;5092866;28;1089;-49
2022/06/11 04:04:54;;;;;;;;;;;;;;;18.56;89.59;94660.72;5093377;28;1025;-49
2022/06/11 04:07:20;;;;;;;;;;;;;;;18.60;89.09;94653.78;5093175;28;1995;-49
2022/06/11 04:09:46;;;;;;;;;;;;;;;18.59;89.35;94660.25;5093098;28;1044;-50
2022/06/11 04:12:15;;;;;;;;;;;;;;;18.69;89.70;94657.88;5093584;28;952;-50
2022/06/11 04:14:43;;;;;;;;;;;;;;;18.62;89.87;94663.34;5093199;28;924;-50
2022/06/11 04:17:18;;;;;;;;;;;;;;;18.65;88.19;94662.91;5093369;28;972;-50
2022/06/11 04:19:45;;;;;;;;;;;;;;;18.77;87.61;94664.88;5092731;28;972;-50
2022/06/11 04:22:12;;;;;;;;;;;;;;;18.86;87.20;94661.69;5092065;28;1859;-50
2022/06/11 04:24:38;;;;;;;;;;;;;;;18.87;87.37;94667.91;5091899;28;1055;-50
2022/06/11 04:27:05;;;;;;;;;;;;;;;18.79;87.89;94658.19;5092920;28;1902;-50
2022/06/11 04:29:33;;;;;;;;;;;;;;;18.78;88.53;94664.66;5092946;28;1012;-50
2022/06/11 04:32:00;;;;;;;;;;;;;;;18.90;87.73;94670.19;5093093;28;1033;-50
2022/06/11 04:34:27;;;;;;;;;;;;;;;18.87;89.34;94670.63;5092831;28;968;-50
2022/06/11 04:36:53;;;;;;;;;;;;;;;18.81;89.03;94669.66;5093063;28;1199;-50
2022/06/11 04:39:21;;;;;;;;;;;;;;;18.84;88.68;94671.09;5092916;28;1079;-50
2022/06/11 04:41:47;;;;;;;;;;;;;;;18.89;88.22;94669.38;5093104;28;914;-50
2022/06/11 04:44:13;;;;;;;;;;;;;;;19.02;87.76;94675.69;5092973;28;1000;-50
2022/06/11 04:46:39;;;;;;;;;;;;;;;19.06;87.93;94675.00;5092752;28;1033;-50
2022/06/11 04:49:05;;;;;;;;;;;;;;;19.14;87.02;94673.03;5092678;28;1981;-50
2022/06/11 04:51:31;;;;;;;;;;;;;;;19.11;88.46;94668.91;5093123;28;976;-49
2022/06/11 04:53:58;;;;;;;;;;;;;;;19.25;86.89;94675.00;5091990;28;969;-50
2022/06/11 04:56:26;;;;;;;;;;;;;;;19.36;86.58;94674.25;5092611;28;1091;-50
2022/06/11 04:58:52;;;;;;;;;;;;;;;19.43;86.07;94679.59;5092853;28;973;-50
2022/06/11 05:01:19;;;;;;;;;;;;;;;19.47;86.39;94675.38;5092932;28;948;-49
2022/06/11 05:03:45;;;;;;;;;;;;;;;19.41;87.46;94684.41;5092379;28;1231;-50
2022/06/11 05:06:14;;;;;;;;;;;;;;;19.29;88.67;94684.31;5101373;28;1138;-50
2022/06/11 05:08:40;;;;;;;;;;;;;;;19.36;87.65;94684.25;5113234;28;1988;-50
2022/06/11 05:11:07;;;;;;;;;;;;;;;19.40;87.37;94672.72;5113123;28;1015;-50
2022/06/11 05:13:33;;;;;;;;;;;;;;;19.38;88.00;94679.44;5114305;28;1263;-50
2022/06/11 05:16:00;;;;;;;;;;;;;;;19.37;88.26;94683.19;5108130;28;1060;-50
2022/06/11 05:18:27;;;;;;;;;;;;;;;19.47;87.37;94687.03;5096241;28;984;-50
2022/06/11 05:20:54;;;;;;;;;;;;;;;19.51;88.70;94692.84;5096182;28;996;-49
2022/06/11 05:23:20;;;;;;;;;;;;;;;19.47;86.98;94695.16;5096406;28;1020;-50
2022/06/11 05:25:46;;;;;;;;;;;;;;;19.36;90.42;94695.94;5095411;28;1286;-49
2022/06/11 05:28:19;;;;;;;;;;;;;;;19.23;91.41;94702.31;5096009;28;1995;-49
2022/06/11 05:30:45;;;;;;;;;;;;;;;19.28;90.25;94707.09;5095937;28;1602;-49
2022/06/11 05:33:12;;;;;;;;;;;;;;;19.31;88.98;94704.75;5096108;28;1087;-49
2022/06/11 05:35:38;;;;;;;;;;;;;;;19.29;90.55;94703.31;5095784;28;1016;-49
2022/06/11 05:38:06;;;;;;;;;;;;;;;19.28;88.91;94697.06;5096185;28;1035;-49
2022/06/11 05:40:34;;;;;;;;;;;;;;;19.28;88.96;94713.31;5095805;28;1032;-49
2022/06/11 05:43:00;;;;;;;;;;;;;;;19.30;88.96;94711.22;5095736;28;1064;-49
2022/06/11 05:45:32;;;;;;;;;;;;;;;19.30;91.57;94710.41;5093762;28;938;-50
2022/06/11 05:47:59;;;;;;;;;;;;;;;19.27;90.70;94710.84;5095938;28;1902;-49
2022/06/11 05:50:28;;;;;;;;;;;;;;;19.32;89.99;94716.41;5095636;28;964;-49
2022/06/11 05:52:55;;;;;;;;;;;;;;;19.41;89.65;94711.53;5095839;28;1031;-49
2022/06/11 05:55:23;;;;;;;;;;;;;;;19.35;89.90;94715.97;5095344;28;1029;-50
2022/06/11 05:57:50;;;;;;;;;;;;;;;19.36;90.22;94720.31;5095582;28;1059;-49
2022/06/11 06:00:17;;;;;;;;;;;;;;;19.37;88.95;94721.13;5095291;28;1036;-49
2022/06/11 06:02:44;;;;;;;;;;;;;;;19.39;89.18;94725.31;5095467;28;1203;-49
2022/06/11 06:05:12;;;;;;;;;;;;;;;19.46;88.48;94723.34;5095337;28;1185;-49
2022/06/11 06:07:39;;;;;;;;;;;;;;;19.49;88.35;94725.59;5095199;28;1909;-49
2022/06/11 06:10:07;;;;;;;;;;;;;;;19.47;87.49;94721.47;5077473;28;945;-49
2022/06/11 06:12:34;;;;;;;;;;;;;;;19.46;87.54;94722.50;5095168;28;1079;-49
2022/06/11 06:15:04;;;;;;;;;;;;;;;19.36;88.91;94724.91;5095064;28;1046;-51
2022/06/11 06:17:30;;;;;;;;;;;;;;;19.30;90.16;94721.22;5095114;28;1036;-49
2022/06/11 06:19:57;;;;;;;;;;;;;;;19.35;87.98;94725.97;5095180;28;1087;-50
2022/06/11 06:22:23;;;;;;;;;;;;;;;19.37;87.63;94730.13;5095013;28;962;-50
2022/06/11 06:24:49;;;;;;;;;;;;;;;19.30;90.05;94730.19;5094630;28;957;-50
2022/06/11 06:27:15;;;;;;;;;;;;;;;19.25;88.76;94738.16;5094732;28;1989;-50
2022/06/11 06:29:41;;;;;;;;;;;;;;;19.29;88.09;94731.25;5095083;28;1009;-50
2022/06/11 06:32:07;;;;;;;;;;;;;;;19.24;89.25;94736.50;5095136;28;1000;-49
2022/06/11 06:34:33;;;;;;;;;;;;;;;19.24;88.42;94735.69;5095192;28;1032;-50
2022/06/11 06:36:59;;;;;;;;;;;;;;;19.24;88.89;94743.81;5094749;28;1023;-50
2022/06/11 06:39:25;;;;;;;;;;;;;;;19.20;91.15;94739.88;5093413;28;1082;-49
2022/06/11 06:41:51;;;;;;;;;;;;;;;19.18;90.37;94745.56;5094496;28;1989;-50
2022/06/11 06:44:17;;;;;;;;;;;;;;;19.29;89.04;94747.50;5095194;28;960;-50
2022/06/11 06:46:43;;;;;;;;;;;;;;;19.39;88.15;94754.28;5094619;28;1015;-49
2022/06/11 06:49:09;;;;;;;;;;;;;;;19.48;88.34;94755.63;5094712;28;1901;-49
2022/06/11 06:51:36;;;;;;;;;;;;;;;19.50;89.15;94765.22;5094447;28;1027;-50
2022/06/11 06:54:03;;;;;;;;;;;;;;;19.50;87.85;94758.94;5094388;28;964;-50
2022/06/11 06:56:33;;;;;;;;;;;;;;;19.51;88.55;94766.03;5094194;28;1162;-49
2022/06/11 06:59:00;;;;;;;;;;;;;;;19.58;88.10;94766.78;5094455;28;910;-50
2022/06/11 07:01:27;;;;;;;;;;;;;;;19.67;88.54;94770.84;5094327;28;1015;-50
2022/06/11 07:03:53;;;;;;;;;;;;;;;19.69;87.54;94776.03;5094250;28;1089;-49
2022/06/11 07:06:20;;;;;;;;;;;;;;;19.65;87.96;94770.25;5104068;28;1235;-50
2022/06/11 07:08:47;;;;;;;;;;;;;;;19.61;87.82;94770.94;5114519;28;1930;-49
2022/06/11 07:11:14;;;;;;;;;;;;;;;19.54;88.91;94776.44;5114365;28;1213;-50
2022/06/11 07:13:40;;;;;;;;;;;;;;;19.49;90.06;94774.38;5114669;28;1052;-50
2022/06/11 07:16:06;;;;;;;;;;;;;;;19.54;89.70;94775.59;5114489;28;995;-50
2022/06/11 07:18:37;;;;;;;;;;;;;;;19.50;88.78;94778.78;5113141;28;1041;-50
2022/06/11 07:21:06;;;;;;;;;;;;;;;19.40;89.05;94781.16;5114322;28;1048;-50
2022/06/11 07:23:42;;;;;;;;;;;;;;;19.38;89.49;94788.69;5114126;28;965;-50
2022/06/11 07:26:11;;;;;;;;;;;;;;;19.43;88.66;94793.44;5114492;28;1004;-50
2022/06/11 07:28:43;;;;;;;;;;;;;;;19.37;90.63;94788.91;5114347;28;1914;-49
2022/06/11 07:31:09;;;;;;;;;;;;;;;19.43;89.93;94796.97;5114156;28;1023;-49
2022/06/11 07:33:35;;;;;;;;;;;;;;;19.42;89.17;94789.88;5114201;28;1051;-50
2022/06/11 07:36:02;;;;;;;;;;;;;;;19.43;89.21;94801.59;5113553;28;1849;-49
2022/06/11 07:38:28;;;;;;;;;;;;;;;19.36;89.91;94800.81;5113750;28;1107;-49
2022/06/11 07:40:54;;;;;;;;;;;;;;;19.35;89.53;94794.56;5114357;28;1022;-49
2022/06/11 07:43:20;;;;;;;;;;;;;;;19.42;89.25;94798.03;5114086;28;984;-49
2022/06/11 07:45:46;;;;;;;;;;;;;;;19.43;89.56;94804.28;5114066;28;1024;-49
2022/06/11 07:48:13;;;;;;;;;;;;;;;19.55;89.15;94796.25;5113933;28;1918;-49
2022/06/11 07:50:41;;;;;;;;;;;;;;;19.72;89.22;94804.59;5113945;28;1043;-49
2022/06/11 07:53:08;;;;;;;;;;;;;;;19.96;87.98;94800.19;5113685;28;1025;-50
2022/06/11 07:55:35;;;;;;;;;;;;;;;20.08;88.68;94810.00;5113606;28;1036;-50
2022/06/11 07:58:01;;;;;;;;;;;;;;;20.12;89.98;94802.25;5113667;28;1044;-50
2022/06/11 08:00:31;;;;;;;;;;;;;;;20.35;86.64;94798.78;5113836;28;1048;-50
2022/06/11 08:02:58;;;;;;;;;;;;;;;20.57;87.27;94801.00;5113629;28;1293;-50
2022/06/11 08:05:24;;;;;;;;;;;;;;;20.52;86.71;94796.25;5111511;28;1184;-50
2022/06/11 08:07:53;;;;;;;;;;;;;;;20.71;85.78;94797.03;5093174;28;1915;-50
2022/06/11 08:10:20;;;;;;;;;;;;;;;20.83;84.00;94799.78;5093572;28;985;-50
2022/06/11 08:12:47;;;;;;;;;;;;;;;20.81;84.75;94810.03;5093313;28;944;-50
2022/06/11 08:15:13;;;;;;;;;;;;;;;20.87;84.32;94803.72;5093339;28;1103;-50
2022/06/11 08:17:40;;;;;;;;;;;;;;;20.97;83.08;94797.69;5093138;28;949;-50
2022/06/11 08:20:07;;;;;;;;;;;;;;;21.06;83.20;94801.72;5093253;28;1044;-50
2022/06/11 08:22:33;;;;;;;;;;;;;;;21.08;79.56;94805.03;5093261;28;984;-50
2022/06/11 08:24:59;;;;;;;;;;;;;;;21.10;81.16;94810.25;5093051;28;1032;-50
2022/06/11 08:27:25;;;;;;;;;;;;;;;21.04;81.02;94801.13;5093118;28;1992;-50
2022/06/11 08:29:51;;;;;;;;;;;;;;;21.00;82.25;94808.91;5093671;28;968;-50
2022/06/11 08:32:18;;;;;;;;;;;;;;;20.88;83.72;94807.25;5093130;28;961;-50
2022/06/11 08:34:46;;;;;;;;;;;;;;;20.89;81.00;94808.88;5091886;28;1013;-50
2022/06/11 08:37:15;;;;;;;;;;;;;;;20.81;80.35;94819.06;5092977;28;1087;-50
2022/06/11 08:39:41;;;;;;;;;;;;;;;20.71;81.83;94817.94;5093278;28;1025;-50
2022/06/11 08:42:26;;;;;;;;;;;;;;;20.67;81.73;94818.41;5091946;28;988;-50
2022/06/11 08:44:52;;;;;;;;;;;;;;;20.78;82.54;94819.50;5091917;28;1091;-50
2022/06/11 08:47:21;;;;;;;;;;;;;;;20.70;81.19;94817.13;5092465;28;1909;-50
2022/06/11 08:49:49;;;;;;;;;;;;;;;20.55;83.44;94814.81;5096123;28;1053;-50
2022/06/11 08:52:18;;;;;;;;;;;;;;;20.45;84.80;94815.38;5095792;28;995;-50
2022/06/11 08:54:46;;;;;;;;;;;;;;;20.53;83.17;94818.81;5096963;28;897;-50
2022/06/11 08:57:20;;;;;;;;;;;;;;;20.51;83.50;94821.78;5096806;28;968;-50
2022/06/11 08:59:46;;;;;;;;;;;;;;;20.44;83.71;94815.59;5096619;28;1027;-50
2022/06/11 09:02:31;;;;;;;;;;;;;;;20.47;81.18;94812.44;5096467;28;1368;-51
2022/06/11 09:05:16;;;;;;;;;;;;;;;20.62;81.34;94810.16;5096840;28;976;-50
2022/06/11 09:07:42;;;;;;;;;;;;;;;20.66;80.22;94808.63;5075969;28;1914;-50
2022/06/11 09:10:14;;;;;;;;;;;;;;;20.77;78.60;94806.16;5076225;28;1833;-50
2022/06/11 09:12:59;;;;;;;;;;;;;;;20.86;78.82;94811.00;5075896;28;902;-50
2022/06/11 09:15:44;;;;;;;;;;;;;;;21.19;78.50;94804.22;5076274;28;1055;-50
2022/06/11 09:18:22;;;;;;;;;;;;;;;21.43;75.91;94806.91;5076044;28;1103;-50
2022/06/11 09:20:52;;;;;;;;;;;;;;;21.52;76.39;94813.69;5076041;28;1016;-50
2022/06/11 09:23:18;;;;;;;;;;;;;;;21.66;75.17;94819.69;5076099;28;1060;-50
2022/06/11 09:25:52;;;;;;;;;;;;;;;21.77;76.48;94818.03;5075793;28;1056;-50
2022/06/11 09:28:21;;;;;;;;;;;;;;;21.95;77.92;94812.44;5075746;28;2000;-50
2022/06/11 09:30:55;;;;;;;;;;;;;;;22.16;76.89;94819.13;5076040;28;957;-50
2022/06/11 09:33:37;;;;;;;;;;;;;;;22.19;76.93;94823.25;5075655;28;1028;-50
2022/06/11 09:36:05;;;;;;;;;;;;;;;22.12;76.00;94822.56;5075831;28;1054;-50
2022/06/11 09:38:50;;;;;;;;;;;;;;;22.43;75.84;94824.03;5075489;28;1032;-50
2022/06/11 09:41:19;;;;;;;;;;;;;;;22.63;73.54;94815.41;5075815;28;984;-50
2022/06/11 09:43:53;;;;;;;;;;;;;;;23.03;73.64;94819.97;5075400;28;1028;-50
2022/06/11 09:46:29;;;;;;;;;;;;;;;23.13;74.59;94813.84;5075853;28;965;-50
2022/06/11 09:49:05;;;;;;;;;;;;;;;23.22;74.67;94806.06;5075402;28;1975;-50
2022/06/11 09:51:41;;;;;;;;;;;;;;;23.14;73.51;94819.03;5075499;28;965;-50
2022/06/11 09:54:07;;;;;;;;;;;;;;;23.15;73.47;94814.44;5075143;28;956;-51
2022/06/11 09:56:44;;;;;;;;;;;;;;;23.38;73.19;94807.97;5075284;28;1052;-50
2022/06/11 09:59:23;;;;;;;;;;;;;;;23.18;71.11;94809.31;5074514;28;1081;-50
2022/06/11 10:02:24;;;;;;;;;;;;;;;22.92;71.69;94804.47;5075354;28;1087;-50
2022/06/11 10:04:51;;;;;;;;;;;;;;;22.43;71.92;94807.69;5051582;28;1517;-50
2022/06/11 10:07:31;;;;;;;;;;;;;;;22.35;72.21;94810.81;5111186;28;1913;-50
2022/06/11 10:10:11;;;;;;;;;;;;;;;22.59;71.68;94801.47;5115756;28;1043;-50
2022/06/11 10:12:43;;;;;;;;;;;;;;;22.74;71.78;94808.25;5115780;28;1003;-50
2022/06/11 10:15:15;;;;;;;;;;;;;;;22.74;71.21;94803.63;5115450;28;1028;-51
2022/06/11 10:18:13;;;;;;;;;;;;;;;22.77;73.35;94792.22;5115832;28;1071;-50
2022/06/11 10:20:42;;;;;;;;;;;;;;;22.81;70.80;94798.03;5070349;28;1367;-50
2022/06/11 10:23:25;;;;;;;;;;;;;;;22.88;70.27;94795.13;5114278;28;1040;-51
2022/06/11 10:25:51;;;;;;;;;;;;;;;23.10;70.48;94787.06;5115383;28;1068;-50
2022/06/11 10:28:22;;;;;;;;;;;;;;;23.35;72.64;94783.91;5115200;28;1901;-50
2022/06/11 10:30:55;;;;;;;;;;;;;;;23.31;71.09;94791.75;5114120;28;1668;-50
2022/06/11 10:33:23;;;;;;;;;;;;;;;23.49;71.92;94787.94;5115288;28;1075;-50
2022/06/11 10:35:54;;;;;;;;;;;;;;;23.58;69.66;94783.72;5115147;28;961;-51
2022/06/11 10:38:41;;;;;;;;;;;;;;;23.53;69.04;94786.38;5115257;28;946;-51
2022/06/11 10:41:09;;;;;;;;;;;;;;;23.25;71.15;94781.84;5115381;28;1048;-51
2022/06/11 10:43:42;;;;;;;;;;;;;;;23.50;69.94;94792.31;5114931;27;1103;-51
2022/06/11 10:46:10;;;;;;;;;;;;;;;23.93;67.97;94788.03;5115053;27;974;-51
2022/06/11 10:48:37;;;;;;;;;;;;;;;24.16;66.33;94795.13;5114621;28;2506;-51
2022/06/11 10:51:07;;;;;;;;;;;;;;;24.03;66.66;94791.97;5115069;28;1066;-51
2022/06/11 10:53:36;;;;;;;;;;;;;;;23.89;68.74;94799.72;5114559;28;1083;-51
2022/06/11 10:56:14;;;;;;;;;;;;;;;23.91;66.02;94795.63;5114655;28;1091;-50
2022/06/11 10:58:43;;;;;;;;;;;;;;;24.05;69.04;94800.72;5114591;28;926;-50
2022/06/11 11:01:11;;;;;;;;;;;;;;;23.86;67.18;94798.28;5114666;28;977;-50
2022/06/11 11:03:47;;;;;;;;;;;;;;;23.61;66.72;94795.19;5114412;28;1238;-51
2022/06/11 11:06:22;;;;;;;;;;;;;;;23.46;67.38;94799.34;5105699;28;1243;-51
2022/06/11 11:08:54;;;;;;;;;;;;;;;23.22;69.11;94781.53;5094293;28;1910;-51
2022/06/11 11:11:20;;;;;;;;;;;;;;;23.00;69.80;94793.16;5093218;28;1035;-51
2022/06/11 11:13:47;;;;;;;;;;;;;;;22.77;68.27;94789.50;5094046;28;1027;-51
2022/06/11 11:16:13;;;;;;;;;;;;;;;22.69;68.78;94792.66;5093952;28;1036;-51
2022/06/11 11:18:42;;;;;;;;;;;;;;;22.66;69.88;94797.75;5093960;28;1032;-51
2022/06/11 11:21:28;;;;;;;;;;;;;;;22.63;70.42;94796.31;5093871;28;1044;-51
2022/06/11 11:23:57;;;;;;;;;;;;;;;22.64;69.60;94784.38;5094019;28;1169;-50
2022/06/11 11:26:36;;;;;;;;;;;;;;;22.63;68.88;94785.44;5092490;28;1040;-51
2022/06/11 11:29:11;;;;;;;;;;;;;;;22.63;71.25;94785.44;5094096;28;1906;-51
2022/06/11 11:31:48;;;;;;;;;;;;;;;22.59;71.11;94784.28;5093837;28;1049;-51
2022/06/11 11:34:14;;;;;;;;;;;;;;;22.34;70.66;94780.00;5093918;28;1015;-50
2022/06/11 11:36:40;;;;;;;;;;;;;;;22.20;71.37;94787.63;5093521;28;1036;-51
2022/06/11 11:39:12;;;;;;;;;;;;;;;22.14;71.63;94782.31;5093781;28;1859;-51
2022/06/11 11:41:47;;;;;;;;;;;;;;;22.18;71.97;94778.06;5093609;28;977;-51
2022/06/11 11:44:17;;;;;;;;;;;;;;;22.25;72.29;94781.47;5093738;28;1083;-51
2022/06/11 11:46:46;;;;;;;;;;;;;;;22.40;73.70;94783.66;5093449;28;974;-50
2022/06/11 11:49:17;;;;;;;;;;;;;;;22.65;74.22;94780.59;5093537;28;1910;-51
2022/06/11 11:51:43;;;;;;;;;;;;;;;22.81;73.56;94782.50;5093578;28;973;-51
2022/06/11 11:54:17;;;;;;;;;;;;;;;22.83;71.15;94793.16;5092368;28;1011;-51
2022/06/11 11:56:54;;;;;;;;;;;;;;;22.74;72.14;94787.25;5092369;28;1085;-51
2022/06/11 11:59:25;;;;;;;;;;;;;;;22.57;74.35;94789.13;5093611;28;961;-51
2022/06/11 12:01:54;;;;;;;;;;;;;;;22.52;71.86;94794.50;5093318;28;1031;-50
2022/06/11 12:04:29;;;;;;;;;;;;;;;22.39;73.29;94801.91;5093350;28;1104;-50
2022/06/11 12:07:02;;;;;;;;;;;;;;;22.17;74.26;94798.97;5108113;28;1165;-51
2022/06/11 12:09:34;;;;;;;;;;;;;;;22.10;74.64;94792.03;5113715;28;1901;-51
2022/06/11 12:12:00;;;;;;;;;;;;;;;21.93;72.50;94798.25;5114028;28;1036;-51
2022/06/11 12:14:36;;;;;;;;;;;;;;;21.78;74.38;94796.03;5113602;28;1027;-51
2022/06/11 12:17:16;;;;;;;;;;;;;;;21.61;74.60;94795.13;5113771;28;953;-50
2022/06/11 12:19:42;;;;;;;;;;;;;;;21.34;75.41;94811.06;5114065;28;997;-50
2022/06/11 12:22:31;;;;;;;;;;;;;;;21.01;78.40;94816.00;5114192;28;1032;-50
2022/06/11 12:24:59;;;;;;;;;;;;;;;20.89;79.87;94817.03;5106984;28;1145;-50
2022/06/11 12:27:25;;;;;;;;;;;;;;;20.98;78.30;94823.78;5117600;28;1909;-50
2022/06/11 12:29:54;;;;;;;;;;;;;;;20.97;79.83;94833.00;5117958;28;1059;-50
2022/06/11 12:32:22;;;;;;;;;;;;;;;20.97;79.45;94838.44;5117513;28;1169;-50
2022/06/11 12:34:48;;;;;;;;;;;;;;;20.99;79.48;94839.03;5116543;28;1031;-49
2022/06/11 12:37:23;;;;;;;;;;;;;;;21.10;77.97;94831.97;5117364;28;1052;-49
2022/06/11 12:40:06;;;;;;;;;;;;;;;21.26;77.15;94829.38;5116605;28;1056;-49
2022/06/11 12:42:32;;;;;;;;;;;;;;;21.36;77.98;94834.25;5117429;28;1040;-48
2022/06/11 12:45:17;;;;;;;;;;;;;;;21.46;74.32;94822.81;5117568;28;1027;-49
2022/06/11 12:48:02;;;;;;;;;;;;;;;21.58;74.44;94820.06;5117050;28;1996;-49
2022/06/11 12:50:31;;;;;;;;;;;;;;;21.83;75.96;94825.22;5117470;28;968;-49
2022/06/11 12:52:57;;;;;;;;;;;;;;;22.09;73.19;94823.88;5117372;27;1000;-49
2022/06/11 12:55:26;;;;;;;;;;;;;;;22.12;73.58;94822.56;5116928;28;1083;-49
2022/06/11 12:58:05;;;;;;;;;;;;;;;22.03;75.00;94824.84;5117091;28;1047;-49
2022/06/11 13:00:37;;;;;;;;;;;;;;;22.18;72.74;94819.72;5117031;28;970;-49
2022/06/11 13:03:12;;;;;;;;;;;;;;;22.19;73.62;94821.34;5116731;28;1080;-49
2022/06/11 13:05:48;;;;;;;;;;;;;;;22.17;73.37;94811.78;5112736;28;1236;-50
2022/06/11 13:08:28;;;;;;;;;;;;;;;22.24;73.31;94817.91;5096484;28;2105;-49
2022/06/11 13:10:57;;;;;;;;;;;;;;;22.39;71.47;94812.78;5096452;28;1055;-50
2022/06/11 13:13:48;;;;;;;;;;;;;;;22.57;71.77;94808.22;5096544;28;1001;-50